Decoded Metar for KOSH (OSHKOSH in WI, USA) (IATA:OSH) | Meteo·Mobile Aviation Weather
aviador You're here:

KOSH Decoded Metar

OSHKOSH in WI, USA
Report Time2019-01-19 06:01:00
UTC Time2019-01-19 06:41:50
Flight Rules ifr IFR
Wind020° at 15 Gusting to 25 kt
W.Decomp.*RWY 04: 14.3 kt HW 4.4 kt LCW
RWY 36: 13.8 kt HW 5.9 kt RCW
RWY 09: 5.9 kt HW 13.8 kt LCW
RWY 31: 4.4 kt HW 14.3 kt RCW
W.Rank020° ranks 35
Current wind is above 020° avg. (9.6)
Visibility2012 m
Phenomena:Light Snow
Mist
Clouds:Overcast 015 Hf
Expected CloudBase > 800 ft AGL from Temp-Dew spread
Ceiling1,500 ft
Temp-11°C (ISA -24)
Dew Point-13°C (85% RH)
AAT-19.7°C
QNH1025 hPa
Density Alt-2,615 ft
Elevation814 ft
Report Wrong Elevation
Raw Report
KOSH 190601Z AUTO 02015G25KT 1 1/4SM -SN BR OVC015 M11/M13 A3027
RMK AO2 P0000 T11111133=

Extra information for KOSH:More info

Metar Taf Metar & Taf Last 4 Metars F.Rules Stats Wind Profile Meteogram Temp Stats Airport Information Weather charts Add Link Nearby VenuesMetar ALERT Operation Metar Decoded Social comments

AIRNAV info for KOSH
EAA Airventure